Time;durP1;ratioP1;P1;durP2;ratioP2;P2;SDS_P1;SDS_P2;PMS_P1;PMS_P2;Temp;Humidity;BMP_temperature;BMP_pressure;BME280_temperature;BME280_humidity;BME280_pressure;Samples;Min_cycle;Max_cycle;Signal;HPM_P1;HPM_P2
2022/10/07 00:01:47;;;;;;;;;63.00;51.00;;;;;17.54;56.29;100595.53;5132011;27;9304;-80
2022/10/07 00:04:16;;;;;;;;;69.00;53.67;;;;;17.49;56.49;100603.53;5113632;27;9160;-81
2022/10/07 00:06:44;;;;;;;;;66.00;53.33;;;;;17.46;56.70;100602.69;5114324;27;9485;-82
2022/10/07 00:09:14;;;;;;;;;68.33;52.33;;;;;17.52;56.53;100592.94;5103467;28;9400;-82
2022/10/07 00:11:43;;;;;;;;;68.00;54.50;;;;;17.44;56.85;100596.56;5093333;28;9174;-81
2022/10/07 00:14:11;;;;;;;;;60.33;48.00;;;;;17.54;56.31;100599.06;5093437;28;9728;-80
2022/10/07 00:16:41;;;;;;;;;56.00;44.33;;;;;17.62;56.03;100588.44;5093133;28;9308;-83
2022/10/07 00:19:13;;;;;;;;;66.00;53.67;;;;;17.68;55.76;100587.47;5111806;28;9262;-82
2022/10/07 00:21:41;;;;;;;;;64.00;51.67;;;;;17.70;55.88;100591.84;5095242;27;9398;-81
2022/10/07 00:24:10;;;;;;;;;62.67;51.33;;;;;17.74;55.77;100588.25;5097591;27;9175;-80
2022/10/07 00:26:40;;;;;;;;;62.25;50.25;;;;;17.75;55.59;100581.22;5095889;27;9160;-83
2022/10/07 00:29:08;;;;;;;;;60.33;49.00;;;;;17.73;55.25;100583.88;5096179;27;9661;-82
2022/10/07 00:31:37;;;;;;;;;60.67;48.67;;;;;17.69;55.31;100586.56;5132497;27;9138;-80
2022/10/07 00:34:05;;;;;;;;;60.33;50.00;;;;;17.70;55.38;100583.91;5132808;27;8951;-80
2022/10/07 00:36:37;;;;;;;;;56.33;46.67;;;;;17.48;55.54;100591.22;5114487;27;8926;-80
2022/10/07 00:39:08;;;;;;;;;58.50;48.00;;;;;17.33;56.20;100580.84;5079289;28;9117;-81
2022/10/07 00:41:42;;;;;;;;;61.50;49.25;;;;;17.21;56.76;100573.97;5077608;28;9609;-79
2022/10/07 00:44:37;;;;;;;;;64.00;51.33;;;;;17.29;56.69;100581.78;5120042;27;8932;-82
2022/10/07 00:47:13;;;;;;;;;62.67;50.33;;;;;17.23;56.67;100576.59;5100861;28;8966;-80
2022/10/07 00:49:47;;;;;;;;;65.00;51.00;;;;;17.13;57.57;100567.91;5085513;28;8945;-81
2022/10/07 00:52:19;;;;;;;;;65.67;53.00;;;;;17.09;57.29;100566.22;5112250;28;9194;-83
2022/10/07 00:54:52;;;;;;;;;60.33;49.67;;;;;17.08;57.51;100567.94;5093655;28;8998;-83
2022/10/07 00:57:26;;;;;;;;;62.00;51.00;;;;;17.06;57.66;100560.97;5111704;28;9115;-82
2022/10/07 00:59:56;;;;;;;;;62.67;51.33;;;;;17.12;57.45;100558.25;5112380;27;9200;-81
2022/10/07 01:02:27;;;;;;;;;62.33;51.00;;;;;17.12;57.31;100553.84;5096692;27;9003;-80
2022/10/07 01:04:59;;;;;;;;;65.00;52.67;;;;;17.20;57.20;100560.81;5088386;28;9269;-80
2022/10/07 01:07:29;;;;;;;;;62.67;51.00;;;;;17.17;57.48;100555.59;5075298;28;9065;-83
2022/10/07 01:09:59;;;;;;;;;60.50;49.50;;;;;17.22;56.91;100552.00;5076301;28;9171;-82
2022/10/07 01:12:44;;;;;;;;;62.33;49.67;;;;;17.39;57.02;100543.91;5109895;28;8882;-81
2022/10/07 01:15:19;;;;;;;;;62.50;50.75;;;;;17.37;56.91;100543.00;5093524;27;9814;-81
2022/10/07 01:17:55;;;;;;;;;62.25;49.25;;;;;17.46;56.71;100544.66;5112750;27;8853;-81
2022/10/07 01:20:34;;;;;;;;;63.00;52.00;;;;;17.45;56.54;100537.66;5112960;27;8845;-82
2022/10/07 01:23:43;;;;;;;;;61.33;49.00;;;;;17.53;56.05;100541.94;5045420;27;8984;-84
2022/10/07 01:26:42;;;;;;;;;62.33;49.00;;;;;17.42;56.72;100538.56;5053266;28;9109;-81
2022/10/07 01:29:14;;;;;;;;;64.67;51.33;;;;;17.36;56.43;100536.00;5050418;28;9773;-81
2022/10/07 01:31:47;;;;;;;;;62.00;50.33;;;;;17.29;57.17;100537.84;5056802;28;9745;-81
2022/10/07 01:34:18;;;;;;;;;63.33;52.00;;;;;17.20;56.91;100532.69;5020224;28;9101;-80
2022/10/07 01:36:53;;;;;;;;;63.67;52.00;;;;;17.04;57.83;100531.97;5021368;28;9084;-80
2022/10/07 01:39:27;;;;;;;;;64.00;52.33;;;;;16.97;58.38;100532.06;5070744;28;9251;-81
2022/10/07 01:41:58;;;;;;;;;63.67;51.33;;;;;16.99;58.05;100531.16;5070041;28;9242;-81
2022/10/07 01:44:29;;;;;;;;;66.00;52.67;;;;;17.07;57.83;100533.69;5069802;28;9268;-81
2022/10/07 01:46:59;;;;;;;;;61.67;52.00;;;;;17.09;57.33;100527.53;5070522;28;9413;-80
2022/10/07 01:49:28;;;;;;;;;65.67;51.00;;;;;17.10;57.44;100529.28;5056336;28;9957;-78
2022/10/07 01:52:18;;;;;;;;;62.33;51.00;;;;;17.24;57.28;100517.69;5035599;28;9079;-81
2022/10/07 01:55:07;;;;;;;;;67.00;53.00;;;;;17.22;57.34;100527.38;5003983;28;9204;-82
2022/10/07 01:57:48;;;;;;;;;61.00;50.33;;;;;17.15;57.33;100527.47;5031899;28;9233;-81
2022/10/07 02:00:18;;;;;;;;;67.67;52.33;;;;;17.17;57.08;100532.72;5070960;28;9312;-82
2022/10/07 02:03:09;;;;;;;;;64.67;52.00;;;;;17.32;57.08;100527.25;5074905;28;9262;-82
2022/10/07 02:05:46;;;;;;;;;65.67;52.00;;;;;17.23;57.17;100526.50;5091039;28;9075;-82
2022/10/07 02:08:30;;;;;;;;;66.67;49.67;;;;;17.32;56.92;100521.13;5091405;28;8977;-83
2022/10/07 02:11:15;;;;;;;;;66.67;54.33;;;;;17.28;57.11;100524.69;5090677;28;9150;-81
2022/10/07 02:14:00;;;;;;;;;63.33;51.00;;;;;17.32;56.75;100521.13;5090447;28;9331;-80
2022/10/07 02:16:40;;;;;;;;;62.00;51.00;;;;;17.29;56.96;100531.69;5091301;28;9249;-83
2022/10/07 02:19:17;;;;;;;;;61.00;49.67;;;;;17.20;57.05;100529.16;5074409;28;9283;-82
2022/10/07 02:21:49;;;;;;;;;66.00;54.00;;;;;17.21;57.31;100536.19;5094509;28;9247;-83
2022/10/07 02:24:23;;;;;;;;;62.33;51.00;;;;;17.24;56.75;100529.13;5073527;28;9487;-79
2022/10/07 02:26:54;;;;;;;;;68.00;55.00;;;;;17.25;56.92;100527.34;5057093;27;9055;-82
2022/10/07 02:29:27;;;;;;;;;66.00;52.67;;;;;17.19;57.24;100528.31;5091616;28;9271;-80
2022/10/07 02:32:00;;;;;;;;;50.00;41.67;;;;;17.20;57.38;100531.81;5077264;28;9359;-80
2022/10/07 02:34:30;;;;;;;;;67.00;53.33;;;;;17.25;57.15;100530.00;5113275;28;9329;-82
2022/10/07 02:37:04;;;;;;;;;65.67;52.67;;;;;17.30;57.03;100531.69;5078131;27;9143;-82
2022/10/07 02:39:34;;;;;;;;;63.33;51.67;;;;;17.30;56.84;100525.53;5070502;27;9095;-84
2022/10/07 02:42:09;;;;;;;;;66.67;52.67;;;;;17.36;56.62;100528.09;5120870;27;9299;-81
2022/10/07 02:44:47;;;;;;;;;59.33;47.33;;;;;17.31;56.50;100524.63;5094160;27;9080;-83
2022/10/07 02:47:23;;;;;;;;;56.67;45.33;;;;;17.35;56.25;100521.06;5103893;27;9260;-82
2022/10/07 02:49:54;;;;;;;;;62.67;51.00;;;;;17.18;56.90;100516.00;5099739;27;9032;-81
2022/10/07 02:52:24;;;;;;;;;63.67;51.33;;;;;17.22;56.82;100514.19;5101413;27;9262;-81
2022/10/07 02:54:57;;;;;;;;;64.67;51.67;;;;;17.25;56.54;100516.81;5098778;27;9022;-80
2022/10/07 02:57:31;;;;;;;;;64.50;51.25;;;;;17.27;56.44;100520.31;5052814;27;8970;-80
2022/10/07 03:00:02;;;;;;;;;62.67;51.00;;;;;17.14;56.85;100516.94;5113789;28;8957;-81
2022/10/07 03:02:49;;;;;;;;;64.67;52.00;;;;;16.99;57.12;100515.34;5102274;28;9037;-79
2022/10/07 03:05:20;;;;;;;;;61.67;50.67;;;;;16.97;57.03;100509.22;5060593;28;9183;-84
2022/10/07 03:07:55;;;;;;;;;59.00;48.33;;;;;17.07;56.82;100513.50;5089419;28;9095;-79
2022/10/07 03:10:27;;;;;;;;;62.33;51.33;;;;;17.08;56.70;100509.97;5088727;28;8932;-83
2022/10/07 03:12:57;;;;;;;;;67.33;52.67;;;;;17.08;57.12;100501.19;5072338;28;9257;-80
2022/10/07 03:15:27;;;;;;;;;64.67;52.67;;;;;17.12;56.35;100498.50;5088587;28;9329;-81
2022/10/07 03:17:57;;;;;;;;;65.00;51.67;;;;;17.08;56.36;100494.16;5088482;28;10421;-79
2022/10/07 03:20:27;;;;;;;;;65.33;53.67;;;;;17.11;56.60;100499.41;5038009;28;9018;-81
2022/10/07 03:22:56;;;;;;;;;67.33;54.33;;;;;17.12;56.64;100498.50;5007334;28;9244;-82
2022/10/07 03:25:25;;;;;;;;;67.00;54.67;;;;;17.14;56.62;100499.38;5089632;28;10078;-81
2022/10/07 03:27:56;;;;;;;;;61.67;51.67;;;;;17.14;56.72;100498.47;5070877;28;9371;-83
2022/10/07 03:30:25;;;;;;;;;65.67;52.67;;;;;17.13;56.73;100496.75;5072233;28;9983;-83
2022/10/07 03:32:56;;;;;;;;;66.00;53.00;;;;;17.05;57.08;100498.59;5054003;28;9255;-80
2022/10/07 03:35:24;;;;;;;;;68.33;55.33;;;;;17.03;57.11;100503.00;5072265;28;9363;-80
2022/10/07 03:37:53;;;;;;;;;72.00;56.00;;;;;17.04;56.78;100512.69;5073111;27;9498;-82
2022/10/07 03:40:22;;;;;;;;;61.00;51.00;;;;;16.85;57.70;100506.75;5092261;27;9636;-81
2022/10/07 03:42:51;;;;;;;;;63.67;51.00;;;;;16.92;57.20;100503.16;5094233;28;9430;-79
2022/10/07 03:45:19;;;;;;;;;67.33;54.33;;;;;16.88;57.42;100506.69;5097740;27;9282;-81
2022/10/07 03:47:49;;;;;;;;;61.00;49.67;;;;;16.80;57.79;100505.88;5095481;27;9441;-82
2022/10/07 03:50:19;;;;;;;;;67.67;54.67;;;;;16.67;58.16;100508.66;5077427;27;9322;-80
2022/10/07 03:52:47;;;;;;;;;77.75;67.50;;;;;16.79;58.01;100509.41;5110829;27;9390;-80
2022/10/07 03:55:16;;;;;;;;;74.75;62.50;;;;;16.84;57.68;100505.88;5113273;27;10095;-82
2022/10/07 03:57:52;;;;;;;;;34.67;31.00;;;;;16.77;58.16;100507.66;5113203;27;10028;-83
2022/10/07 04:00:28;;;;;;;;;68.00;55.00;;;;;16.87;58.06;100503.19;5094122;27;9108;-82
2022/10/07 04:02:57;;;;;;;;;69.75;54.25;;;;;16.74;58.26;100501.53;5075169;27;9435;-82
2022/10/07 04:05:28;;;;;;;;;71.67;56.00;;;;;16.84;58.30;100497.97;5121988;28;9695;-81
2022/10/07 04:07:57;;;;;;;;;68.67;56.00;;;;;16.87;58.01;100495.28;5107422;27;9463;-81
2022/10/07 04:10:27;;;;;;;;;74.00;60.25;;;;;16.91;58.02;100494.34;5093960;27;9252;-79
2022/10/07 04:12:56;;;;;;;;;74.00;58.75;;;;;16.98;58.07;100499.56;5098761;27;9771;-81
2022/10/07 04:15:25;;;;;;;;;66.00;54.33;;;;;17.03;57.58;100487.19;5100855;27;9554;-80
2022/10/07 04:17:57;;;;;;;;;76.00;62.00;;;;;17.04;57.56;100486.31;5082346;27;9438;-82
2022/10/07 04:20:28;;;;;;;;;70.67;55.00;;;;;17.08;57.20;100488.88;5096374;27;10133;-82
2022/10/07 04:22:57;;;;;;;;;69.75;55.50;;;;;17.07;57.23;100494.16;5079166;27;9409;-80
2022/10/07 04:25:36;;;;;;;;;66.00;54.00;;;;;17.10;56.52;100489.75;5095009;27;9464;-82
2022/10/07 04:28:17;;;;;;;;;59.67;48.67;;;;;17.10;56.83;100488.88;5081505;27;9191;-82
2022/10/07 04:30:50;;;;;;;;;112.00;103.25;;;;;17.12;56.46;100487.09;5088513;27;9095;-82
2022/10/07 04:33:24;;;;;;;;;70.00;56.00;;;;;17.07;56.42;100478.34;5094350;27;11546;-84
2022/10/07 04:35:56;;;;;;;;;67.67;53.67;;;;;16.95;56.58;100490.78;5109043;27;9862;-80
2022/10/07 04:38:25;;;;;;;;;69.67;56.00;;;;;16.96;57.16;100483.78;5093551;28;9543;-82
2022/10/07 04:40:58;;;;;;;;;68.67;55.00;;;;;16.86;57.54;100487.38;5077390;28;9549;-82
2022/10/07 04:43:32;;;;;;;;;71.00;56.00;;;;;16.68;58.31;100488.44;5093213;28;9256;-81
2022/10/07 04:46:13;;;;;;;;;68.00;55.67;;;;;16.82;58.29;100485.66;5092871;28;9611;-81
2022/10/07 04:48:48;;;;;;;;;68.33;55.00;;;;;16.75;58.52;100491.00;5092297;28;9434;-82
2022/10/07 04:51:22;;;;;;;;;73.50;59.00;;;;;16.79;58.70;100493.59;5076646;28;9402;-80
2022/10/07 04:53:54;;;;;;;;;66.33;53.67;;;;;16.84;58.07;100497.97;5107566;28;9528;-81
2022/10/07 04:56:30;;;;;;;;;72.50;57.25;;;;;16.99;58.20;100503.94;5076444;28;9557;-82
2022/10/07 04:59:00;;;;;;;;;67.25;55.25;;;;;17.08;57.88;100509.09;5110630;28;9537;-82
2022/10/07 05:01:29;;;;;;;;;71.00;55.67;;;;;17.18;57.87;100501.97;5076691;28;10458;-82
2022/10/07 05:03:59;;;;;;;;;69.75;56.50;;;;;17.27;57.72;100507.13;5111814;27;9422;-82
2022/10/07 05:06:29;;;;;;;;;71.25;56.00;;;;;17.33;57.53;100500.03;5093517;28;9663;-83
2022/10/07 05:08:59;;;;;;;;;69.00;55.75;;;;;17.45;57.01;100509.53;5094614;27;9579;-84
2022/10/07 05:11:28;;;;;;;;;68.25;55.75;;;;;17.54;56.95;100514.69;5097989;27;9735;-82
2022/10/07 05:14:03;;;;;;;;;69.33;56.67;;;;;17.65;56.16;100513.66;5112383;27;9624;-82
2022/10/07 05:16:33;;;;;;;;;69.25;55.50;;;;;17.62;56.09;100511.94;5115677;27;9449;-81
2022/10/07 05:19:03;;;;;;;;;66.25;54.00;;;;;17.69;56.02;100518.88;5061040;27;9568;-81
2022/10/07 05:21:33;;;;;;;;;65.25;52.00;;;;;17.74;55.88;100514.38;5111697;27;9534;-80
2022/10/07 05:24:05;;;;;;;;;67.67;55.00;;;;;17.74;55.63;100517.03;5095696;27;9662;-83
2022/10/07 05:26:37;;;;;;;;;67.67;55.00;;;;;17.66;55.66;100520.69;5092343;27;9577;-82
2022/10/07 05:29:08;;;;;;;;;66.33;54.67;;;;;17.68;56.02;100516.25;5078344;27;9334;-81
2022/10/07 05:31:42;;;;;;;;;67.00;55.00;;;;;17.87;55.63;100512.47;5073497;27;9329;-82
2022/10/07 05:34:14;;;;;;;;;65.00;53.25;;;;;18.00;55.51;100510.53;5086699;28;10273;-81
2022/10/07 05:36:44;;;;;;;;;69.00;55.00;;;;;17.96;55.25;100516.75;5118482;27;9556;-80
2022/10/07 05:39:14;;;;;;;;;65.33;52.67;;;;;17.58;56.41;100517.25;5091631;28;9325;-84
2022/10/07 05:41:48;;;;;;;;;65.67;53.00;;;;;17.53;56.83;100518.19;5076060;27;9336;-84
2022/10/07 05:44:20;;;;;;;;;69.25;55.75;;;;;17.72;56.33;100534.63;5094441;27;9301;-83
2022/10/07 05:46:51;;;;;;;;;67.50;54.75;;;;;17.91;56.23;100531.78;5111144;27;9541;-80
2022/10/07 05:49:20;;;;;;;;;67.25;55.00;;;;;18.12;55.23;100535.84;5078883;27;9683;-83
2022/10/07 05:51:50;;;;;;;;;67.75;55.00;;;;;18.08;55.24;100535.03;5112720;27;9613;-83
2022/10/07 05:54:19;;;;;;;;;68.00;54.00;;;;;18.23;54.95;100528.63;5095635;27;9883;-82
2022/10/07 05:56:47;;;;;;;;;70.75;55.75;;;;;18.36;54.82;100531.94;5084035;27;9766;-84
2022/10/07 05:59:19;;;;;;;;;68.75;56.00;;;;;18.53;54.46;100534.31;5103586;27;9782;-82
2022/10/07 06:01:49;;;;;;;;;69.50;55.50;;;;;18.45;54.75;100536.19;5108794;27;9898;-80
2022/10/07 06:04:21;;;;;;;;;68.00;55.50;;;;;18.40;55.01;100530.13;5065506;28;9618;-81
2022/10/07 06:06:54;;;;;;;;;74.00;63.00;;;;;18.59;54.30;100536.84;5058374;28;9618;-80
2022/10/07 06:15:04;;;;;;;;;69.50;55.00;;;;;18.61;54.37;100540.31;5025280;28;9763;-81
2022/10/07 06:17:33;;;;;;;;;70.25;57.25;;;;;18.63;54.43;100538.50;5020481;28;9631;-81
2022/10/07 06:20:07;;;;;;;;;69.00;55.75;;;;;18.83;54.35;100535.56;5027799;28;9948;-81
2022/10/07 06:22:37;;;;;;;;;66.50;54.25;;;;;19.06;53.77;100540.41;5029626;28;9803;-82
2022/10/07 06:25:07;;;;;;;;;65.00;52.25;;;;;19.06;53.83;100540.41;5040614;28;9814;-82
2022/10/07 06:27:35;;;;;;;;;65.50;54.00;;;;;18.98;53.89;100538.78;5038591;28;9797;-83
2022/10/07 06:30:06;;;;;;;;;67.00;55.00;;;;;19.26;53.50;100542.66;5032959;28;10365;-83
2022/10/07 06:32:34;;;;;;;;;65.50;53.25;;;;;19.38;53.39;100545.97;5030190;28;9751;-75
2022/10/07 06:35:04;;;;;;;;;64.75;52.75;;;;;19.53;52.68;100540.34;5044595;28;9699;-75
2022/10/07 06:37:33;;;;;;;;;64.75;53.00;;;;;19.50;52.88;100532.44;5047050;28;9844;-78
2022/10/07 06:40:04;;;;;;;;;69.00;55.50;;;;;19.66;52.33;100544.47;5068978;28;9695;-74
2022/10/07 06:42:33;;;;;;;;;65.25;53.50;;;;;19.65;52.32;100541.84;5076514;28;9824;-75
2022/10/07 06:45:25;;;;;;;;;64.50;53.00;;;;;19.62;52.27;100547.19;5092044;28;9698;-78
2022/10/07 06:47:54;;;;;;;;;66.75;52.75;;;;;19.40;52.88;100547.66;5081993;28;9607;-76
2022/10/07 06:50:24;;;;;;;;;66.75;54.00;;;;;19.51;52.75;100539.50;5072030;28;9650;-78
2022/10/07 06:52:52;;;;;;;;;66.00;54.00;;;;;19.40;52.88;100545.00;5062801;28;9669;-77
2022/10/07 06:55:23;;;;;;;;;68.75;56.50;;;;;19.01;54.31;100538.75;5068154;28;9652;-76
2022/10/07 06:57:54;;;;;;;;;66.25;54.00;;;;;18.82;54.98;100548.78;5067278;28;9697;-77
2022/10/07 07:00:24;;;;;;;;;65.50;53.00;;;;;18.36;56.30;100549.56;5049249;28;10248;-76
2022/10/07 07:02:53;;;;;;;;;58.75;48.75;;;;;18.40;56.26;100545.97;5032138;28;9706;-80
2022/10/07 07:05:24;;;;;;;;;66.25;54.00;;;;;18.47;55.61;100545.00;5060585;28;10041;-74
2022/10/07 07:07:53;;;;;;;;;70.00;58.00;;;;;18.78;54.82;100547.94;5063889;28;9495;-76
2022/10/07 07:10:23;;;;;;;;;66.00;53.50;;;;;18.53;55.27;100551.94;5065888;28;9964;-77
2022/10/07 07:12:53;;;;;;;;;62.75;51.75;;;;;18.49;55.68;100559.91;5050596;28;9748;-76
2022/10/07 07:15:23;;;;;;;;;64.00;52.00;;;;;18.85;54.39;100551.41;5047238;28;10974;-76
2022/10/07 07:17:51;;;;;;;;;65.33;53.00;;;;;19.16;53.31;100553.44;5017135;28;9309;-76
2022/10/07 07:20:21;;;;;;;;;67.00;53.50;;;;;19.38;52.88;100553.91;5001445;28;9490;-75
2022/10/07 07:22:51;;;;;;;;;64.00;52.50;;;;;19.52;51.80;100556.25;5050392;28;9728;-75
2022/10/07 07:25:20;;;;;;;;;65.67;53.00;;;;;19.71;51.20;100552.28;5017827;28;9555;-77
2022/10/07 07:27:51;;;;;;;;;66.33;52.00;;;;;19.96;50.73;100554.41;5053637;28;10212;-77
2022/10/07 07:30:26;;;;;;;;;60.67;50.33;;;;;20.15;50.98;100550.44;5059123;28;9658;-77
2022/10/07 07:32:57;;;;;;;;;64.00;51.67;;;;;20.39;50.17;100551.59;5086849;28;9327;-75
2022/10/07 07:35:30;;;;;;;;;63.00;51.33;;;;;20.60;49.55;100550.25;5087380;28;9398;-78
2022/10/07 07:37:59;;;;;;;;;64.00;52.00;;;;;20.77;48.89;100541.81;5084874;28;9331;-76
2022/10/07 07:40:29;;;;;;;;;61.67;49.67;;;;;20.92;48.15;100548.50;5068954;28;9180;-77
2022/10/07 07:43:01;;;;;;;;;62.33;49.33;;;;;21.07;47.93;100549.88;5017461;28;9180;-77
2022/10/07 07:45:31;;;;;;;;;62.67;50.00;;;;;21.22;47.73;100548.56;5002633;28;9172;-76
2022/10/07 07:48:00;;;;;;;;;61.33;50.33;;;;;21.37;47.30;100552.56;5083920;28;9384;-77
2022/10/07 07:50:30;;;;;;;;;61.67;49.00;;;;;21.34;46.87;100539.38;5072030;28;9396;-75
2022/10/07 07:53:03;;;;;;;;;57.67;48.00;;;;;21.57;45.93;100544.06;5075888;28;9453;-77
2022/10/07 07:55:31;;;;;;;;;56.67;46.00;;;;;21.37;46.53;100542.81;5069191;28;9181;-76
2022/10/07 07:58:01;;;;;;;;;61.25;50.00;;;;;21.23;47.24;100550.31;5069349;28;9592;-77
2022/10/07 08:00:31;;;;;;;;;63.75;51.75;;;;;21.46;46.75;100539.06;5055594;28;9740;-77
2022/10/07 08:03:06;;;;;;;;;57.00;47.33;;;;;21.72;45.77;100546.25;5070514;28;9623;-76
2022/10/07 08:05:35;;;;;;;;;55.33;46.33;;;;;21.89;45.05;100539.53;5070537;28;8996;-77
2022/10/07 08:08:04;;;;;;;;;55.50;45.50;;;;;22.07;45.18;100538.94;5067781;28;9004;-75
2022/10/07 08:10:33;;;;;;;;;57.33;48.00;;;;;22.13;45.03;100537.88;5069172;28;8881;-77
2022/10/07 08:13:03;;;;;;;;;61.00;48.00;;;;;22.24;44.32;100540.19;5086457;28;10002;-77
2022/10/07 08:15:31;;;;;;;;;58.00;48.67;;;;;21.75;45.25;100546.13;5083319;28;9159;-77
2022/10/07 08:18:01;;;;;;;;;56.33;46.33;;;;;21.62;45.51;100539.47;5085535;28;9260;-76
2022/10/07 08:20:30;;;;;;;;;64.75;52.50;;;;;21.45;45.54;100533.81;5075631;28;9315;-79
2022/10/07 08:22:59;;;;;;;;;56.50;45.50;;;;;21.18;46.03;100539.81;5052544;28;9865;-76
2022/10/07 08:25:28;;;;;;;;;58.50;47.25;;;;;21.27;45.95;100528.09;5085586;28;9658;-78
2022/10/07 08:28:00;;;;;;;;;54.00;45.50;;;;;21.16;45.55;100539.00;5067543;28;8863;-75
2022/10/07 08:30:32;;;;;;;;;59.67;49.00;;;;;20.80;46.54;100536.44;5085014;28;8850;-77
2022/10/07 08:33:00;;;;;;;;;58.67;47.67;;;;;21.07;46.23;100541.03;5068013;28;9245;-77
2022/10/07 08:35:29;;;;;;;;;59.33;48.00;;;;;21.50;45.82;100530.09;5085182;28;8934;-76
2022/10/07 08:37:57;;;;;;;;;57.67;47.00;;;;;21.86;45.73;100534.34;5074839;28;9124;-79
2022/10/07 08:40:26;;;;;;;;;58.33;48.67;;;;;22.17;45.49;100524.47;5068076;28;8996;-76
2022/10/07 08:42:55;;;;;;;;;57.67;47.67;;;;;22.48;44.65;100525.25;5067068;28;9023;-77
2022/10/07 08:45:30;;;;;;;;;60.33;49.33;;;;;22.77;43.75;100524.25;5070212;28;10052;-78
2022/10/07 08:48:05;;;;;;;;;58.75;48.50;;;;;23.02;43.13;100518.03;5067410;28;9099;-79
2022/10/07 08:50:46;;;;;;;;;56.50;46.50;;;;;23.32;43.44;100519.59;5053848;28;8908;-77
2022/10/07 08:53:20;;;;;;;;;58.00;48.00;;;;;23.45;42.22;100513.81;5087556;28;8902;-77
2022/10/07 08:55:55;;;;;;;;;55.75;46.00;;;;;23.46;40.87;100511.09;5068007;28;8904;-77
2022/10/07 08:58:39;;;;;;;;;51.50;43.25;;;;;23.74;40.45;100505.56;5067278;28;8874;-76
2022/10/07 09:01:21;;;;;;;;;53.50;43.75;;;;;23.77;39.44;100509.03;5068176;28;8878;-77
2022/10/07 09:04:01;;;;;;;;;53.25;45.00;;;;;23.92;38.76;100511.97;5057045;28;8866;-79
2022/10/07 09:06:37;;;;;;;;;48.75;42.00;;;;;24.04;38.73;100515.91;5067612;28;8847;-77
2022/10/07 09:09:15;;;;;;;;;43.25;37.00;;;;;24.26;39.02;100505.25;5052775;28;8840;-78
2022/10/07 09:11:47;;;;;;;;;42.50;37.50;;;;;24.31;38.00;100513.06;5080928;28;8873;-72
2022/10/07 09:14:25;;;;;;;;;43.25;37.25;;;;;24.38;37.59;100511.00;5066655;28;9743;-71
2022/10/07 09:17:01;;;;;;;;;43.25;37.00;;;;;24.47;37.58;100500.78;5075560;28;8936;-74
2022/10/07 09:19:34;;;;;;;;;54.50;44.75;;;;;24.42;37.50;100502.78;5071860;28;8835;-69
2022/10/07 09:22:09;;;;;;;;;46.50;38.00;;;;;23.68;38.63;100495.13;5073235;28;8839;-69
2022/10/07 09:24:38;;;;;;;;;47.00;40.50;;;;;23.40;39.37;100499.78;5065490;28;8889;-67
2022/10/07 09:27:14;;;;;;;;;47.25;40.25;;;;;23.74;38.76;100494.00;5066186;28;8842;-71
2022/10/07 09:29:44;;;;;;;;;46.75;38.00;;;;;23.75;38.53;100488.63;5080907;28;8966;-72
2022/10/07 09:32:17;;;;;;;;;43.00;36.25;;;;;24.02;38.62;100490.28;5062660;28;8870;-71
2022/10/07 09:34:47;;;;;;;;;40.25;34.75;;;;;24.23;38.09;100489.38;5065504;28;8960;-69
2022/10/07 09:37:19;;;;;;;;;46.00;39.75;;;;;24.31;38.19;100491.75;5034420;28;9057;-71
2022/10/07 09:39:50;;;;;;;;;47.75;39.75;;;;;24.40;37.93;100491.31;5067163;28;8901;-71
2022/10/07 09:42:29;;;;;;;;;40.00;34.50;;;;;24.61;38.60;100484.25;5064943;28;8958;-71
2022/10/07 09:45:01;;;;;;;;;44.75;37.50;;;;;24.67;38.19;100483.13;5076543;28;8879;-71
2022/10/07 09:47:39;;;;;;;;;46.50;38.25;;;;;24.88;37.88;100487.47;5068655;28;8878;-72
2022/10/07 09:50:31;;;;;;;;;44.00;37.75;;;;;25.07;37.32;100479.50;5072391;28;8945;-69
2022/10/07 09:53:01;;;;;;;;;46.50;37.75;;;;;24.98;37.83;100471.91;5057825;28;9621;-72
2022/10/07 09:55:36;;;;;;;;;46.75;39.25;;;;;24.52;38.28;100485.50;5085541;28;8874;-72
2022/10/07 09:58:07;;;;;;;;;44.50;38.00;;;;;24.40;38.92;100475.31;5074351;28;8896;-69
2022/10/07 10:00:43;;;;;;;;;47.50;40.50;;;;;24.63;38.77;100477.03;5075519;28;8870;-69
2022/10/07 10:03:12;;;;;;;;;47.75;40.00;;;;;24.76;38.72;100466.69;5077845;28;8940;-74
2022/10/07 10:05:52;;;;;;;;;40.75;35.75;;;;;24.97;38.53;100461.31;5066700;28;8993;-71
2022/10/07 10:08:25;;;;;;;;;39.50;35.00;;;;;24.97;37.72;100458.63;5063786;28;8981;-70
2022/10/07 10:10:55;;;;;;;;;38.25;34.50;;;;;25.13;37.82;100454.34;5065398;28;9009;-71
2022/10/07 10:13:27;;;;;;;;;41.75;37.00;;;;;25.19;37.57;100462.06;5065296;28;9720;-72
2022/10/07 10:15:56;;;;;;;;;36.75;32.50;;;;;25.27;37.44;100459.94;5083847;28;8875;-74
2022/10/07 10:18:36;;;;;;;;;34.25;31.75;;;;;25.39;37.16;100460.31;5085222;28;8851;-73
2022/10/07 10:21:20;;;;;;;;;35.50;32.75;;;;;25.53;36.98;100454.28;5081340;28;8858;-73
2022/10/07 10:23:51;;;;;;;;;37.75;33.50;;;;;24.69;38.14;100459.91;5086763;28;8970;-73
2022/10/07 10:26:37;;;;;;;;;33.25;32.25;;;;;24.22;38.83;100454.81;5072252;28;8872;-71
2022/10/07 10:29:17;;;;;;;;;40.00;35.25;;;;;23.48;40.66;100455.13;5075947;28;8844;-72
2022/10/07 10:32:04;;;;;;;;;32.00;31.00;;;;;23.45;41.16;100461.41;5087155;28;8860;-70
2022/10/07 10:34:44;;;;;;;;;35.00;31.75;;;;;23.73;40.07;100450.53;5101680;28;8828;-74
2022/10/07 10:37:19;;;;;;;;;36.00;32.75;;;;;23.97;40.77;100447.84;5053787;28;8890;-73
2022/10/07 10:40:02;;;;;;;;;35.50;31.75;;;;;24.38;40.19;100447.88;5084726;28;8851;-73
2022/10/07 10:42:44;;;;;;;;;32.50;31.00;;;;;24.65;39.86;100444.94;5089557;28;8891;-71
2022/10/07 10:45:24;;;;;;;;;30.50;29.50;;;;;24.86;39.36;100440.47;5108068;28;8941;-71
2022/10/07 10:48:10;;;;;;;;;32.75;30.75;;;;;25.12;38.67;100431.25;5108187;28;8861;-71
2022/10/07 10:50:44;;;;;;;;;32.75;29.50;;;;;25.00;38.57;100423.81;5107449;28;9041;-70
2022/10/07 10:53:33;;;;;;;;;33.50;31.50;;;;;25.23;37.98;100423.63;5110149;28;9690;-71
2022/10/07 10:56:25;;;;;;;;;31.50;29.25;;;;;25.40;37.86;100419.28;5089258;28;8869;-72
2022/10/07 10:59:17;;;;;;;;;22.00;22.00;;;;;25.41;36.06;100421.03;5087012;28;8863;-70
2022/10/07 11:01:57;;;;;;;;;23.00;21.50;;;;;25.57;35.97;100419.34;5086181;28;8874;-74
2022/10/07 11:04:44;;;;;;;;;22.25;19.25;;;;;25.42;35.37;100410.25;5110357;28;8849;-72
2022/10/07 11:07:20;;;;;;;;;14.80;14.80;;;;;25.53;34.03;100409.75;5093770;28;9051;-69
2022/10/07 11:09:56;;;;;;;;;16.00;15.20;;;;;25.51;34.25;100397.41;5089667;28;9014;-71
2022/10/07 11:12:27;;;;;;;;;18.20;17.80;;;;;25.60;34.63;100400.50;5089292;28;9013;-76
2022/10/07 11:15:02;;;;;;;;;18.80;17.00;;;;;25.77;34.27;100396.13;5109267;28;8857;-76
2022/10/07 11:17:36;;;;;;;;;21.40;21.40;;;;;25.66;34.52;100392.16;5110714;28;8868;-76
2022/10/07 11:20:18;;;;;;;;;16.60;16.20;;;;;25.63;35.05;100386.13;5108344;28;8879;-76
2022/10/07 11:22:53;;;;;;;;;24.00;22.25;;;;;25.43;35.07;100382.63;5089689;28;8849;-76
2022/10/07 11:25:31;;;;;;;;;17.00;17.00;;;;;25.55;35.12;100375.81;5093612;28;8860;-76
2022/10/07 11:28:14;;;;;;;;;18.80;18.80;;;;;25.70;35.01;100379.53;5090730;28;8870;-75
2022/10/07 11:30:50;;;;;;;;;20.40;18.40;;;;;25.76;35.00;100370.34;5073327;28;8867;-79
2022/10/07 11:33:30;;;;;;;;;17.40;16.60;;;;;25.67;34.46;100372.53;5131116;27;8838;-83
2022/10/07 11:36:07;;;;;;;;;16.00;16.00;;;;;25.74;34.84;100364.22;5099434;27;8863;-79
2022/10/07 11:38:40;;;;;;;;;21.50;21.00;;;;;25.73;34.28;100362.47;5112716;27;8969;-81
2022/10/07 11:41:19;;;;;;;;;17.80;17.80;;;;;25.88;34.00;100359.03;5110105;27;8930;-81
2022/10/07 11:43:55;;;;;;;;;18.00;17.40;;;;;25.65;33.59;100354.84;5093859;27;8837;-79
2022/10/07 11:46:28;;;;;;;;;22.00;20.00;;;;;25.64;34.19;100347.78;5087788;27;8914;-82
2022/10/07 11:49:03;;;;;;;;;18.40;16.60;;;;;25.73;33.99;100350.00;5090634;27;8839;-82
2022/10/07 11:51:36;;;;;;;;;12.20;11.80;;;;;25.74;33.92;100335.69;5110567;27;8849;-73